North Salt Lake, Utah
Current Conditions -  °F | °C
As of 5:53 PM on Sunday 23 Nov 2014 (Local Time) from KSLC Reporting Station
Broken Clouds Broken Clouds  
Wind Chill: 37°   Ceiling: 8000
Heat Index: 37°   Visibility: 10mi
Dew Point: 22°   Wind: 0mph
Humidity: 54%   Direction: NA
Pressure: 30.23"   Gusts: NA
Location:  40.84°N, 111.91°W
Report Text: KSLC 240053Z 00000KT 10SM FEW040 BKN080 03/M06 A3023 RMK AO2 SLP245 T00281056
Loading
Personal Weather Stations






























Interactive Weather Map New forecast layout! Learn more

10-Day Weather Forecast

Advertisements
Track Severe Weather on mobile